sensor_id;sensor_type;location;lat;lon;timestamp;pressure;altitude;pressure_sealevel;temperature
20289;BMP180;10303;51.960;8.372;2023-07-24T00:00:28;99502.00;;;22.40
20289;BMP180;10303;51.960;8.372;2023-07-24T00:02:54;99498.00;;;22.40
20289;BMP180;10303;51.960;8.372;2023-07-24T00:05:21;99497.00;;;22.40
20289;BMP180;10303;51.960;8.372;2023-07-24T00:07:47;99495.00;;;22.40
20289;BMP180;10303;51.960;8.372;2023-07-24T00:10:13;99492.00;;;22.40
20289;BMP180;10303;51.960;8.372;2023-07-24T00:12:39;99493.00;;;22.40
20289;BMP180;10303;51.960;8.372;2023-07-24T00:15:06;99486.00;;;22.40
20289;BMP180;10303;51.960;8.372;2023-07-24T00:17:32;99475.00;;;22.40
20289;BMP180;10303;51.960;8.372;2023-07-24T00:19:58;99479.00;;;22.40
20289;BMP180;10303;51.960;8.372;2023-07-24T00:22:24;99476.00;;;22.40
20289;BMP180;10303;51.960;8.372;2023-07-24T00:24:50;99467.00;;;22.30
20289;BMP180;10303;51.960;8.372;2023-07-24T00:27:16;99473.00;;;22.30
20289;BMP180;10303;51.960;8.372;2023-07-24T00:29:42;99479.00;;;22.30
20289;BMP180;10303;51.960;8.372;2023-07-24T00:32:08;99481.00;;;22.30
20289;BMP180;10303;51.960;8.372;2023-07-24T00:34:35;99466.00;;;22.30
20289;BMP180;10303;51.960;8.372;2023-07-24T00:37:02;99469.00;;;22.30
20289;BMP180;10303;51.960;8.372;2023-07-24T00:39:28;99471.00;;;22.30
20289;BMP180;10303;51.960;8.372;2023-07-24T00:41:56;99471.00;;;22.30
20289;BMP180;10303;51.960;8.372;2023-07-24T00:44:23;99464.00;;;22.30
20289;BMP180;10303;51.960;8.372;2023-07-24T00:46:49;99472.00;;;22.30
20289;BMP180;10303;51.960;8.372;2023-07-24T00:49:16;99481.00;;;22.30
20289;BMP180;10303;51.960;8.372;2023-07-24T00:51:42;99468.00;;;22.30
20289;BMP180;10303;51.960;8.372;2023-07-24T00:54:11;99463.00;;;22.30
20289;BMP180;10303;51.960;8.372;2023-07-24T00:56:37;99451.00;;;22.30
20289;BMP180;10303;51.960;8.372;2023-07-24T00:59:03;99462.00;;;22.30
20289;BMP180;10303;51.960;8.372;2023-07-24T01:01:30;99453.00;;;22.30
20289;BMP180;10303;51.960;8.372;2023-07-24T01:03:57;99453.00;;;22.20
20289;BMP180;10303;51.960;8.372;2023-07-24T01:06:24;99452.00;;;22.20
20289;BMP180;10303;51.960;8.372;2023-07-24T01:08:50;99444.00;;;22.20
20289;BMP180;10303;51.960;8.372;2023-07-24T01:11:22;99456.00;;;22.20
20289;BMP180;10303;51.960;8.372;2023-07-24T01:14:13;99441.00;;;22.10
20289;BMP180;10303;51.960;8.372;2023-07-24T01:16:43;99437.00;;;22.10
20289;BMP180;10303;51.960;8.372;2023-07-24T01:19:36;99431.00;;;22.10
20289;BMP180;10303;51.960;8.372;2023-07-24T01:22:25;99424.00;;;22.10
20289;BMP180;10303;51.960;8.372;2023-07-24T01:27:46;99432.00;;;22.10
20289;BMP180;10303;51.960;8.372;2023-07-24T01:30:18;99434.00;;;22.10
20289;BMP180;10303;51.960;8.372;2023-07-24T01:32:45;99429.00;;;22.10
20289;BMP180;10303;51.960;8.372;2023-07-24T01:35:11;99423.00;;;22.10
20289;BMP180;10303;51.960;8.372;2023-07-24T01:37:38;99425.00;;;22.00
20289;BMP180;10303;51.960;8.372;2023-07-24T01:40:10;99426.00;;;22.00
20289;BMP180;10303;51.960;8.372;2023-07-24T01:42:37;99431.00;;;22.00
20289;BMP180;10303;51.960;8.372;2023-07-24T01:45:04;99424.00;;;22.00
20289;BMP180;10303;51.960;8.372;2023-07-24T01:47:31;99419.00;;;21.90
20289;BMP180;10303;51.960;8.372;2023-07-24T01:49:58;99407.00;;;21.90
20289;BMP180;10303;51.960;8.372;2023-07-24T01:52:25;99400.00;;;21.90
20289;BMP180;10303;51.960;8.372;2023-07-24T01:54:51;99412.00;;;21.90
20289;BMP180;10303;51.960;8.372;2023-07-24T01:57:17;99412.00;;;21.90
20289;BMP180;10303;51.960;8.372;2023-07-24T01:59:43;99407.00;;;21.90
20289;BMP180;10303;51.960;8.372;2023-07-24T02:02:10;99403.00;;;21.90
20289;BMP180;10303;51.960;8.372;2023-07-24T02:04:36;99400.00;;;21.90
20289;BMP180;10303;51.960;8.372;2023-07-24T02:07:03;99407.00;;;21.90
20289;BMP180;10303;51.960;8.372;2023-07-24T02:09:29;99408.00;;;21.90
20289;BMP180;10303;51.960;8.372;2023-07-24T02:11:55;99401.00;;;21.90
20289;BMP180;10303;51.960;8.372;2023-07-24T02:14:21;99400.00;;;21.90
20289;BMP180;10303;51.960;8.372;2023-07-24T02:16:47;99396.00;;;21.90
20289;BMP180;10303;51.960;8.372;2023-07-24T02:19:13;99396.00;;;21.90
20289;BMP180;10303;51.960;8.372;2023-07-24T02:21:39;99395.00;;;21.90
20289;BMP180;10303;51.960;8.372;2023-07-24T02:24:06;99392.00;;;21.90
20289;BMP180;10303;51.960;8.372;2023-07-24T02:26:32;99387.00;;;21.90
20289;BMP180;10303;51.960;8.372;2023-07-24T02:28:58;99389.00;;;21.90
20289;BMP180;10303;51.960;8.372;2023-07-24T02:31:25;99388.00;;;21.80
20289;BMP180;10303;51.960;8.372;2023-07-24T02:33:51;99387.00;;;21.80
20289;BMP180;10303;51.960;8.372;2023-07-24T02:36:17;99379.00;;;21.80
20289;BMP180;10303;51.960;8.372;2023-07-24T02:38:43;99380.00;;;21.80
20289;BMP180;10303;51.960;8.372;2023-07-24T02:41:09;99374.00;;;21.80
20289;BMP180;10303;51.960;8.372;2023-07-24T02:43:35;99366.00;;;21.80
20289;BMP180;10303;51.960;8.372;2023-07-24T02:46:02;99367.00;;;21.80
20289;BMP180;10303;51.960;8.372;2023-07-24T02:48:28;99365.00;;;21.70
20289;BMP180;10303;51.960;8.372;2023-07-24T02:50:55;99377.00;;;21.70
20289;BMP180;10303;51.960;8.372;2023-07-24T02:53:21;99365.00;;;21.70
20289;BMP180;10303;51.960;8.372;2023-07-24T02:55:47;99368.00;;;21.70
20289;BMP180;10303;51.960;8.372;2023-07-24T02:58:13;99368.00;;;21.70
20289;BMP180;10303;51.960;8.372;2023-07-24T03:00:40;99362.00;;;21.70
20289;BMP180;10303;51.960;8.372;2023-07-24T03:03:06;99359.00;;;21.70
20289;BMP180;10303;51.960;8.372;2023-07-24T03:05:34;99372.00;;;21.60
20289;BMP180;10303;51.960;8.372;2023-07-24T03:08:00;99371.00;;;21.60
20289;BMP180;10303;51.960;8.372;2023-07-24T03:10:26;99366.00;;;21.60
20289;BMP180;10303;51.960;8.372;2023-07-24T03:12:52;99357.00;;;21.60
20289;BMP180;10303;51.960;8.372;2023-07-24T03:15:19;99364.00;;;21.60
20289;BMP180;10303;51.960;8.372;2023-07-24T03:17:45;99357.00;;;21.60
20289;BMP180;10303;51.960;8.372;2023-07-24T03:20:18;99347.00;;;21.50
20289;BMP180;10303;51.960;8.372;2023-07-24T03:22:45;99339.00;;;21.50
20289;BMP180;10303;51.960;8.372;2023-07-24T03:25:11;99347.00;;;21.50
20289;BMP180;10303;51.960;8.372;2023-07-24T03:27:37;99335.00;;;21.50
20289;BMP180;10303;51.960;8.372;2023-07-24T03:30:04;99331.00;;;21.40
20289;BMP180;10303;51.960;8.372;2023-07-24T03:32:30;99340.00;;;21.40
20289;BMP180;10303;51.960;8.372;2023-07-24T03:34:56;99331.00;;;21.40
20289;BMP180;10303;51.960;8.372;2023-07-24T03:37:22;99335.00;;;21.40
20289;BMP180;10303;51.960;8.372;2023-07-24T03:39:48;99320.00;;;21.40
20289;BMP180;10303;51.960;8.372;2023-07-24T03:42:29;99323.00;;;21.30
20289;BMP180;10303;51.960;8.372;2023-07-24T03:44:57;99308.00;;;21.30
20289;BMP180;10303;51.960;8.372;2023-07-24T03:47:23;99314.00;;;21.30
20289;BMP180;10303;51.960;8.372;2023-07-24T03:49:50;99307.00;;;21.30
20289;BMP180;10303;51.960;8.372;2023-07-24T03:52:16;99299.00;;;21.30
20289;BMP180;10303;51.960;8.372;2023-07-24T03:54:42;99293.00;;;21.30
20289;BMP180;10303;51.960;8.372;2023-07-24T03:57:08;99294.00;;;21.30
20289;BMP180;10303;51.960;8.372;2023-07-24T03:59:35;99289.00;;;21.30
20289;BMP180;10303;51.960;8.372;2023-07-24T04:02:01;99271.00;;;21.30
20289;BMP180;10303;51.960;8.372;2023-07-24T04:04:27;99273.00;;;21.30
20289;BMP180;10303;51.960;8.372;2023-07-24T04:06:53;99258.00;;;21.30
20289;BMP180;10303;51.960;8.372;2023-07-24T04:09:19;99249.00;;;21.30
20289;BMP180;10303;51.960;8.372;2023-07-24T04:11:45;99236.00;;;21.30
20289;BMP180;10303;51.960;8.372;2023-07-24T04:14:11;99237.00;;;21.30
20289;BMP180;10303;51.960;8.372;2023-07-24T04:16:37;99235.00;;;21.30
20289;BMP180;10303;51.960;8.372;2023-07-24T04:19:03;99239.00;;;21.30
20289;BMP180;10303;51.960;8.372;2023-07-24T04:21:29;99220.00;;;21.30
20289;BMP180;10303;51.960;8.372;2023-07-24T04:23:55;99236.00;;;21.30
20289;BMP180;10303;51.960;8.372;2023-07-24T04:26:21;99238.00;;;21.30
20289;BMP180;10303;51.960;8.372;2023-07-24T04:28:47;99250.00;;;21.30
20289;BMP180;10303;51.960;8.372;2023-07-24T04:31:13;99253.00;;;21.30
20289;BMP180;10303;51.960;8.372;2023-07-24T04:33:39;99238.00;;;21.40
20289;BMP180;10303;51.960;8.372;2023-07-24T04:36:05;99237.00;;;21.40
20289;BMP180;10303;51.960;8.372;2023-07-24T04:38:31;99236.00;;;21.40
20289;BMP180;10303;51.960;8.372;2023-07-24T04:41:00;99240.00;;;21.40
20289;BMP180;10303;51.960;8.372;2023-07-24T04:43:26;99249.00;;;21.40
20289;BMP180;10303;51.960;8.372;2023-07-24T04:45:52;99252.00;;;21.40
20289;BMP180;10303;51.960;8.372;2023-07-24T04:48:19;99247.00;;;21.50
20289;BMP180;10303;51.960;8.372;2023-07-24T04:50:45;99250.00;;;21.50
20289;BMP180;10303;51.960;8.372;2023-07-24T04:53:11;99241.00;;;21.50
20289;BMP180;10303;51.960;8.372;2023-07-24T04:55:37;99232.00;;;21.50
20289;BMP180;10303;51.960;8.372;2023-07-24T04:58:05;99236.00;;;21.50
20289;BMP180;10303;51.960;8.372;2023-07-24T05:00:31;99227.00;;;21.60
20289;BMP180;10303;51.960;8.372;2023-07-24T05:02:57;99227.00;;;21.60
20289;BMP180;10303;51.960;8.372;2023-07-24T05:05:23;99217.00;;;21.60
20289;BMP180;10303;51.960;8.372;2023-07-24T05:07:49;99224.00;;;21.60
20289;BMP180;10303;51.960;8.372;2023-07-24T05:10:15;99229.00;;;21.60
20289;BMP180;10303;51.960;8.372;2023-07-24T05:12:41;99231.00;;;21.60
20289;BMP180;10303;51.960;8.372;2023-07-24T05:15:10;99234.00;;;21.60
20289;BMP180;10303;51.960;8.372;2023-07-24T05:17:36;99229.00;;;21.60
20289;BMP180;10303;51.960;8.372;2023-07-24T05:20:03;99233.00;;;21.70
20289;BMP180;10303;51.960;8.372;2023-07-24T05:22:29;99226.00;;;21.70
20289;BMP180;10303;51.960;8.372;2023-07-24T05:24:55;99227.00;;;21.70
20289;BMP180;10303;51.960;8.372;2023-07-24T05:27:21;99225.00;;;21.70
20289;BMP180;10303;51.960;8.372;2023-07-24T05:29:47;99230.00;;;21.70
20289;BMP180;10303;51.960;8.372;2023-07-24T05:32:13;99237.00;;;21.80
20289;BMP180;10303;51.960;8.372;2023-07-24T05:34:38;99244.00;;;21.80
20289;BMP180;10303;51.960;8.372;2023-07-24T05:37:05;99251.00;;;21.80
20289;BMP180;10303;51.960;8.372;2023-07-24T05:39:31;99248.00;;;21.80
20289;BMP180;10303;51.960;8.372;2023-07-24T05:41:57;99239.00;;;21.80
20289;BMP180;10303;51.960;8.372;2023-07-24T05:44:23;99248.00;;;21.80
20289;BMP180;10303;51.960;8.372;2023-07-24T05:46:49;99246.00;;;21.80
20289;BMP180;10303;51.960;8.372;2023-07-24T05:49:15;99240.00;;;21.80
20289;BMP180;10303;51.960;8.372;2023-07-24T05:51:41;99232.00;;;21.80
20289;BMP180;10303;51.960;8.372;2023-07-24T05:54:07;99227.00;;;21.80
20289;BMP180;10303;51.960;8.372;2023-07-24T05:56:33;99232.00;;;21.80
20289;BMP180;10303;51.960;8.372;2023-07-24T05:58:59;99249.00;;;21.80
20289;BMP180;10303;51.960;8.372;2023-07-24T06:01:25;99248.00;;;21.80
20289;BMP180;10303;51.960;8.372;2023-07-24T06:03:51;99258.00;;;21.80
20289;BMP180;10303;51.960;8.372;2023-07-24T06:06:17;99253.00;;;21.80
20289;BMP180;10303;51.960;8.372;2023-07-24T06:08:43;99246.00;;;21.80
20289;BMP180;10303;51.960;8.372;2023-07-24T06:11:09;99247.00;;;21.80
20289;BMP180;10303;51.960;8.372;2023-07-24T06:13:36;99247.00;;;21.80
20289;BMP180;10303;51.960;8.372;2023-07-24T06:16:02;99252.00;;;21.80
20289;BMP180;10303;51.960;8.372;2023-07-24T06:18:28;99259.00;;;21.80
20289;BMP180;10303;51.960;8.372;2023-07-24T06:20:54;99242.00;;;21.80
20289;BMP180;10303;51.960;8.372;2023-07-24T06:23:20;99254.00;;;21.80
20289;BMP180;10303;51.960;8.372;2023-07-24T06:25:46;99252.00;;;21.90
20289;BMP180;10303;51.960;8.372;2023-07-24T06:28:12;99251.00;;;21.90
20289;BMP180;10303;51.960;8.372;2023-07-24T06:30:39;99246.00;;;21.90
20289;BMP180;10303;51.960;8.372;2023-07-24T06:33:05;99251.00;;;21.90
20289;BMP180;10303;51.960;8.372;2023-07-24T06:35:31;99247.00;;;21.90
20289;BMP180;10303;51.960;8.372;2023-07-24T06:37:57;99249.00;;;21.90
20289;BMP180;10303;51.960;8.372;2023-07-24T06:40:23;99252.00;;;21.90
20289;BMP180;10303;51.960;8.372;2023-07-24T06:42:49;99254.00;;;21.90
20289;BMP180;10303;51.960;8.372;2023-07-24T06:45:15;99260.00;;;22.00
20289;BMP180;10303;51.960;8.372;2023-07-24T06:47:41;99268.00;;;22.00
20289;BMP180;10303;51.960;8.372;2023-07-24T06:50:07;99267.00;;;22.00
20289;BMP180;10303;51.960;8.372;2023-07-24T06:52:33;99271.00;;;22.00
20289;BMP180;10303;51.960;8.372;2023-07-24T06:54:59;99282.00;;;22.00
20289;BMP180;10303;51.960;8.372;2023-07-24T06:57:25;99277.00;;;22.00
20289;BMP180;10303;51.960;8.372;2023-07-24T06:59:51;99272.00;;;22.00
20289;BMP180;10303;51.960;8.372;2023-07-24T07:02:17;99273.00;;;22.00
20289;BMP180;10303;51.960;8.372;2023-07-24T07:04:43;99281.00;;;22.10
20289;BMP180;10303;51.960;8.372;2023-07-24T07:07:09;99273.00;;;22.10
20289;BMP180;10303;51.960;8.372;2023-07-24T07:09:36;99275.00;;;22.10
20289;BMP180;10303;51.960;8.372;2023-07-24T07:12:02;99274.00;;;22.10
20289;BMP180;10303;51.960;8.372;2023-07-24T07:14:28;99273.00;;;22.10
20289;BMP180;10303;51.960;8.372;2023-07-24T07:16:54;99266.00;;;22.20
20289;BMP180;10303;51.960;8.372;2023-07-24T07:19:19;99263.00;;;22.30
20289;BMP180;10303;51.960;8.372;2023-07-24T07:21:45;99266.00;;;22.30
20289;BMP180;10303;51.960;8.372;2023-07-24T07:24:11;99266.00;;;22.40
20289;BMP180;10303;51.960;8.372;2023-07-24T07:26:37;99264.00;;;22.40
20289;BMP180;10303;51.960;8.372;2023-07-24T07:29:03;99268.00;;;22.50
20289;BMP180;10303;51.960;8.372;2023-07-24T07:31:29;99265.00;;;22.50
20289;BMP180;10303;51.960;8.372;2023-07-24T07:33:55;99264.00;;;22.50
20289;BMP180;10303;51.960;8.372;2023-07-24T07:36:21;99271.00;;;22.60
20289;BMP180;10303;51.960;8.372;2023-07-24T07:38:48;99266.00;;;22.60
20289;BMP180;10303;51.960;8.372;2023-07-24T07:41:14;99268.00;;;22.60
20289;BMP180;10303;51.960;8.372;2023-07-24T07:43:40;99267.00;;;22.60
20289;BMP180;10303;51.960;8.372;2023-07-24T07:46:06;99253.00;;;22.70
20289;BMP180;10303;51.960;8.372;2023-07-24T07:48:33;99254.00;;;22.70
20289;BMP180;10303;51.960;8.372;2023-07-24T07:50:59;99262.00;;;22.80
20289;BMP180;10303;51.960;8.372;2023-07-24T07:53:25;99258.00;;;22.80
20289;BMP180;10303;51.960;8.372;2023-07-24T07:55:59;99264.00;;;22.90
20289;BMP180;10303;51.960;8.372;2023-07-24T07:58:28;99264.00;;;23.00
20289;BMP180;10303;51.960;8.372;2023-07-24T08:00:54;99258.00;;;23.10
20289;BMP180;10303;51.960;8.372;2023-07-24T08:03:21;99258.00;;;23.10
20289;BMP180;10303;51.960;8.372;2023-07-24T08:05:47;99250.00;;;23.20
20289;BMP180;10303;51.960;8.372;2023-07-24T08:08:14;99251.00;;;23.20
20289;BMP180;10303;51.960;8.372;2023-07-24T08:10:40;99253.00;;;23.30
20289;BMP180;10303;51.960;8.372;2023-07-24T08:13:06;99243.00;;;23.30
20289;BMP180;10303;51.960;8.372;2023-07-24T08:15:37;99251.00;;;23.30
20289;BMP180;10303;51.960;8.372;2023-07-24T08:18:04;99238.00;;;23.30
20289;BMP180;10303;51.960;8.372;2023-07-24T08:20:31;99234.00;;;23.40
20289;BMP180;10303;51.960;8.372;2023-07-24T08:22:57;99243.00;;;23.40
20289;BMP180;10303;51.960;8.372;2023-07-24T08:25:23;99243.00;;;23.40
20289;BMP180;10303;51.960;8.372;2023-07-24T08:27:49;99238.00;;;23.30
20289;BMP180;10303;51.960;8.372;2023-07-24T08:30:15;99238.00;;;23.40
20289;BMP180;10303;51.960;8.372;2023-07-24T08:32:41;99244.00;;;23.40
20289;BMP180;10303;51.960;8.372;2023-07-24T08:35:07;99233.00;;;23.40
20289;BMP180;10303;51.960;8.372;2023-07-24T08:37:33;99238.00;;;23.40
20289;BMP180;10303;51.960;8.372;2023-07-24T08:39:59;99236.00;;;23.50
20289;BMP180;10303;51.960;8.372;2023-07-24T08:42:25;99237.00;;;23.50
20289;BMP180;10303;51.960;8.372;2023-07-24T08:44:54;99244.00;;;23.60
20289;BMP180;10303;51.960;8.372;2023-07-24T08:47:20;99231.00;;;23.60
20289;BMP180;10303;51.960;8.372;2023-07-24T08:49:48;99233.00;;;23.60
20289;BMP180;10303;51.960;8.372;2023-07-24T08:52:15;99234.00;;;23.60
20289;BMP180;10303;51.960;8.372;2023-07-24T08:54:43;99235.00;;;23.60
20289;BMP180;10303;51.960;8.372;2023-07-24T08:57:11;99237.00;;;23.60
20289;BMP180;10303;51.960;8.372;2023-07-24T08:59:37;99231.00;;;23.60
20289;BMP180;10303;51.960;8.372;2023-07-24T09:02:03;99239.00;;;23.70
20289;BMP180;10303;51.960;8.372;2023-07-24T09:04:29;99228.00;;;23.70
20289;BMP180;10303;51.960;8.372;2023-07-24T09:06:57;99223.00;;;23.70
20289;BMP180;10303;51.960;8.372;2023-07-24T09:09:30;99227.00;;;23.80
20289;BMP180;10303;51.960;8.372;2023-07-24T09:11:57;99227.00;;;23.80
20289;BMP180;10303;51.960;8.372;2023-07-24T09:14:27;99228.00;;;23.90
20289;BMP180;10303;51.960;8.372;2023-07-24T09:17:09;99223.00;;;24.00
20289;BMP180;10303;51.960;8.372;2023-07-24T09:19:36;99225.00;;;24.00
20289;BMP180;10303;51.960;8.372;2023-07-24T09:22:14;99225.00;;;24.00
20289;BMP180;10303;51.960;8.372;2023-07-24T09:24:55;99222.00;;;24.00
20289;BMP180;10303;51.960;8.372;2023-07-24T09:27:25;99222.00;;;24.10
20289;BMP180;10303;51.960;8.372;2023-07-24T09:29:52;99215.00;;;24.10
20289;BMP180;10303;51.960;8.372;2023-07-24T09:32:28;99228.00;;;24.00
20289;BMP180;10303;51.960;8.372;2023-07-24T09:34:54;99233.00;;;24.00
20289;BMP180;10303;51.960;8.372;2023-07-24T09:39:56;99217.00;;;23.80
20289;BMP180;10303;51.960;8.372;2023-07-24T09:42:35;99225.00;;;23.70
20289;BMP180;10303;51.960;8.372;2023-07-24T09:45:05;99221.00;;;23.70
20289;BMP180;10303;51.960;8.372;2023-07-24T09:47:32;99222.00;;;23.70
20289;BMP180;10303;51.960;8.372;2023-07-24T09:49:59;99219.00;;;23.80
20289;BMP180;10303;51.960;8.372;2023-07-24T09:52:29;99221.00;;;23.90
20289;BMP180;10303;51.960;8.372;2023-07-24T09:55:15;99214.00;;;23.90
20289;BMP180;10303;51.960;8.372;2023-07-24T09:57:45;99215.00;;;24.10
20289;BMP180;10303;51.960;8.372;2023-07-24T10:00:12;99211.00;;;24.20
20289;BMP180;10303;51.960;8.372;2023-07-24T10:02:39;99222.00;;;24.30
20289;BMP180;10303;51.960;8.372;2023-07-24T10:05:06;99220.00;;;24.30
20289;BMP180;10303;51.960;8.372;2023-07-24T10:07:32;99207.00;;;24.30
20289;BMP180;10303;51.960;8.372;2023-07-24T10:09:59;99211.00;;;24.40
20289;BMP180;10303;51.960;8.372;2023-07-24T10:12:27;99209.00;;;24.50
20289;BMP180;10303;51.960;8.372;2023-07-24T10:14:55;99211.00;;;24.60
20289;BMP180;10303;51.960;8.372;2023-07-24T10:17:39;99205.00;;;24.80
20289;BMP180;10303;51.960;8.372;2023-07-24T10:20:10;99197.00;;;25.00
20289;BMP180;10303;51.960;8.372;2023-07-24T10:22:40;99203.00;;;25.20
20289;BMP180;10303;51.960;8.372;2023-07-24T10:25:11;99198.00;;;25.20
20289;BMP180;10303;51.960;8.372;2023-07-24T10:27:44;99191.00;;;25.10
20289;BMP180;10303;51.960;8.372;2023-07-24T10:30:12;99188.00;;;25.20
20289;BMP180;10303;51.960;8.372;2023-07-24T10:32:48;99177.00;;;25.00
20289;BMP180;10303;51.960;8.372;2023-07-24T10:35:15;99189.00;;;24.90
20289;BMP180;10303;51.960;8.372;2023-07-24T10:37:43;99194.00;;;25.00
20289;BMP180;10303;51.960;8.372;2023-07-24T10:40:20;99200.00;;;25.10
20289;BMP180;10303;51.960;8.372;2023-07-24T10:43:05;99203.00;;;25.30
20289;BMP180;10303;51.960;8.372;2023-07-24T10:45:46;99193.00;;;25.50
20289;BMP180;10303;51.960;8.372;2023-07-24T10:48:16;99209.00;;;25.70
20289;BMP180;10303;51.960;8.372;2023-07-24T10:50:45;99202.00;;;25.80
20289;BMP180;10303;51.960;8.372;2023-07-24T10:53:14;99186.00;;;25.80
20289;BMP180;10303;51.960;8.372;2023-07-24T10:55:45;99189.00;;;25.70
20289;BMP180;10303;51.960;8.372;2023-07-24T10:58:13;99196.00;;;25.70
20289;BMP180;10303;51.960;8.372;2023-07-24T11:00:40;99199.00;;;25.60
20289;BMP180;10303;51.960;8.372;2023-07-24T11:03:11;99203.00;;;25.50
20289;BMP180;10303;51.960;8.372;2023-07-24T11:05:43;99198.00;;;25.30
20289;BMP180;10303;51.960;8.372;2023-07-24T11:08:15;99192.00;;;25.20
20289;BMP180;10303;51.960;8.372;2023-07-24T11:10:50;99194.00;;;25.10
20289;BMP180;10303;51.960;8.372;2023-07-24T11:13:20;99204.00;;;25.00
20289;BMP180;10303;51.960;8.372;2023-07-24T11:15:48;99202.00;;;24.90
20289;BMP180;10303;51.960;8.372;2023-07-24T11:18:15;99203.00;;;24.70
20289;BMP180;10303;51.960;8.372;2023-07-24T11:20:51;99223.00;;;24.60
20289;BMP180;10303;51.960;8.372;2023-07-24T11:23:17;99214.00;;;24.60
20289;BMP180;10303;51.960;8.372;2023-07-24T11:25:45;99211.00;;;24.50
20289;BMP180;10303;51.960;8.372;2023-07-24T11:28:13;99217.00;;;24.40
20289;BMP180;10303;51.960;8.372;2023-07-24T11:30:41;99222.00;;;24.30
20289;BMP180;10303;51.960;8.372;2023-07-24T11:33:11;99225.00;;;24.10
20289;BMP180;10303;51.960;8.372;2023-07-24T11:35:39;99217.00;;;24.00
20289;BMP180;10303;51.960;8.372;2023-07-24T11:38:10;99223.00;;;23.80
20289;BMP180;10303;51.960;8.372;2023-07-24T11:40:41;99214.00;;;23.70
20289;BMP180;10303;51.960;8.372;2023-07-24T11:43:19;99222.00;;;23.60
20289;BMP180;10303;51.960;8.372;2023-07-24T11:45:47;99220.00;;;23.70
20289;BMP180;10303;51.960;8.372;2023-07-24T11:48:21;99220.00;;;23.60
20289;BMP180;10303;51.960;8.372;2023-07-24T11:50:53;99195.00;;;23.70
20289;BMP180;10303;51.960;8.372;2023-07-24T11:53:26;99206.00;;;23.70
20289;BMP180;10303;51.960;8.372;2023-07-24T11:55:59;99191.00;;;23.80
20289;BMP180;10303;51.960;8.372;2023-07-24T11:58:27;99197.00;;;23.80
20289;BMP180;10303;51.960;8.372;2023-07-24T12:00:54;99184.00;;;23.90
20289;BMP180;10303;51.960;8.372;2023-07-24T12:03:25;99186.00;;;23.90
20289;BMP180;10303;51.960;8.372;2023-07-24T12:05:51;99179.00;;;23.90
20289;BMP180;10303;51.960;8.372;2023-07-24T12:08:33;99175.00;;;23.90
20289;BMP180;10303;51.960;8.372;2023-07-24T12:11:00;99164.00;;;24.00
20289;BMP180;10303;51.960;8.372;2023-07-24T12:13:26;99157.00;;;24.00
20289;BMP180;10303;51.960;8.372;2023-07-24T12:15:53;99150.00;;;24.00
20289;BMP180;10303;51.960;8.372;2023-07-24T12:18:19;99153.00;;;24.00
20289;BMP180;10303;51.960;8.372;2023-07-24T12:20:45;99150.00;;;24.00
20289;BMP180;10303;51.960;8.372;2023-07-24T12:23:11;99147.00;;;23.90
20289;BMP180;10303;51.960;8.372;2023-07-24T12:25:37;99160.00;;;23.90
20289;BMP180;10303;51.960;8.372;2023-07-24T12:28:03;99154.00;;;23.90
20289;BMP180;10303;51.960;8.372;2023-07-24T12:30:29;99147.00;;;23.90
20289;BMP180;10303;51.960;8.372;2023-07-24T12:32:55;99156.00;;;23.80
20289;BMP180;10303;51.960;8.372;2023-07-24T12:35:21;99160.00;;;23.80
20289;BMP180;10303;51.960;8.372;2023-07-24T12:37:47;99160.00;;;23.70
20289;BMP180;10303;51.960;8.372;2023-07-24T12:40:13;99180.00;;;23.70
20289;BMP180;10303;51.960;8.372;2023-07-24T12:42:39;99201.00;;;23.60
20289;BMP180;10303;51.960;8.372;2023-07-24T12:45:06;99206.00;;;23.60
20289;BMP180;10303;51.960;8.372;2023-07-24T12:47:33;99191.00;;;23.50
20289;BMP180;10303;51.960;8.372;2023-07-24T12:50:00;99191.00;;;23.40
20289;BMP180;10303;51.960;8.372;2023-07-24T12:52:28;99187.00;;;23.40
20289;BMP180;10303;51.960;8.372;2023-07-24T12:54:54;99189.00;;;23.30
20289;BMP180;10303;51.960;8.372;2023-07-24T12:57:20;99174.00;;;23.30
20289;BMP180;10303;51.960;8.372;2023-07-24T12:59:46;99176.00;;;23.20
20289;BMP180;10303;51.960;8.372;2023-07-24T13:02:12;99172.00;;;23.20
20289;BMP180;10303;51.960;8.372;2023-07-24T13:04:38;99169.00;;;23.10
20289;BMP180;10303;51.960;8.372;2023-07-24T13:07:04;99175.00;;;23.10
20289;BMP180;10303;51.960;8.372;2023-07-24T13:09:30;99172.00;;;23.10
20289;BMP180;10303;51.960;8.372;2023-07-24T13:11:56;99189.00;;;23.00
20289;BMP180;10303;51.960;8.372;2023-07-24T13:14:22;99206.00;;;22.90
20289;BMP180;10303;51.960;8.372;2023-07-24T13:16:50;99206.00;;;22.80
20289;BMP180;10303;51.960;8.372;2023-07-24T13:19:16;99223.00;;;22.80
20289;BMP180;10303;51.960;8.372;2023-07-24T13:21:42;99233.00;;;22.70
20289;BMP180;10303;51.960;8.372;2023-07-24T13:24:09;99225.00;;;22.60
20289;BMP180;10303;51.960;8.372;2023-07-24T13:26:36;99216.00;;;22.60
20289;BMP180;10303;51.960;8.372;2023-07-24T13:29:03;99216.00;;;22.50
20289;BMP180;10303;51.960;8.372;2023-07-24T13:31:31;99212.00;;;22.40
20289;BMP180;10303;51.960;8.372;2023-07-24T13:33:57;99213.00;;;22.30
20289;BMP180;10303;51.960;8.372;2023-07-24T13:36:23;99214.00;;;22.20
20289;BMP180;10303;51.960;8.372;2023-07-24T13:38:49;99209.00;;;22.10
20289;BMP180;10303;51.960;8.372;2023-07-24T13:41:16;99202.00;;;22.00
20289;BMP180;10303;51.960;8.372;2023-07-24T13:43:42;99202.00;;;22.00
20289;BMP180;10303;51.960;8.372;2023-07-24T13:46:08;99156.00;;;21.90
20289;BMP180;10303;51.960;8.372;2023-07-24T13:48:34;99094.00;;;21.90
20289;BMP180;10303;51.960;8.372;2023-07-24T13:51:01;99041.00;;;22.00
20289;BMP180;10303;51.960;8.372;2023-07-24T13:53:27;99003.00;;;22.00
20289;BMP180;10303;51.960;8.372;2023-07-24T13:55:53;99003.00;;;22.00
20289;BMP180;10303;51.960;8.372;2023-07-24T13:58:19;99018.00;;;22.10
20289;BMP180;10303;51.960;8.372;2023-07-24T14:00:45;99027.00;;;22.20
20289;BMP180;10303;51.960;8.372;2023-07-24T14:03:11;99020.00;;;22.20
20289;BMP180;10303;51.960;8.372;2023-07-24T14:05:37;99026.00;;;22.30
20289;BMP180;10303;51.960;8.372;2023-07-24T14:08:04;99038.00;;;22.40
20289;BMP180;10303;51.960;8.372;2023-07-24T14:10:30;99041.00;;;22.50
20289;BMP180;10303;51.960;8.372;2023-07-24T14:12:56;99034.00;;;22.60
20289;BMP180;10303;51.960;8.372;2023-07-24T14:15:22;99042.00;;;22.70